GCC08 YBBN-YBCG
Flight info
| Callsign | GCC08 |
|---|---|
| Flight time | 0h 19m |
| Altitude | 11000 |
| Route | DCT 2721S15307E DCT CITEE DCT NOMEV DCT VERIK DCT IRPOD DCT |
| Aircraft | PC12/L-SDFGRWY/S |
Departure
| Time | 2026-05-07 21:20 |
|---|---|
| Airport | Brisbane International Airport (YBBN) |
Arrival
| Time | 2026-05-07 21:40 |
|---|---|
| Airport | Gold Coast Airport (YBCG) |
| Time | Latitude | Longitude | Altitude | Speed | Heading |
|---|---|---|---|---|---|
| 2026-05-07 21:11 | -27.37420 | 153.12632 | 14 ft | 0 kts | 115° |
| 2026-05-07 21:15 | -27.37421 | 153.12633 | 14 ft | 2 kts | 107° |
| 2026-05-07 21:16 | -27.37390 | 153.12645 | 14 ft | 3 kts | 355° |
| 2026-05-07 21:16 | -27.37334 | 153.12662 | 14 ft | 12 kts | 67° |
| 2026-05-07 21:16 | -27.37380 | 153.12791 | 14 ft | 26 kts | 117° |
| 2026-05-07 21:16 | -27.37435 | 153.12921 | 14 ft | 11 kts | 88° |
| 2026-05-07 21:17 | -27.37374 | 153.12978 | 14 ft | 11 kts | 32° |
| 2026-05-07 21:17 | -27.37374 | 153.13044 | 14 ft | 0 kts | 116° |
| 2026-05-07 21:17 | -27.37380 | 153.13109 | 14 ft | 17 kts | 54° |
| 2026-05-07 21:18 | -27.37273 | 153.13185 | 14 ft | 15 kts | 64° |
| 2026-05-07 21:18 | -27.37321 | 153.13335 | 14 ft | 20 kts | 119° |
| 2026-05-07 21:18 | -27.37338 | 153.13367 | 14 ft | 0 kts | 121° |
| 2026-05-07 21:19 | -27.37354 | 153.13392 | 15 ft | 11 kts | 137° |
| 2026-05-07 21:19 | -27.37464 | 153.13429 | 16 ft | 24 kts | 191° |
| 2026-05-07 21:19 | -27.37670 | 153.13312 | 15 ft | 48 kts | 207° |
| 2026-05-07 21:19 | -27.38113 | 153.13059 | 15 ft | 98 kts | 207° |
| 2026-05-07 21:20 | -27.38845 | 153.12661 | 52 ft | 132 kts | 208° |
| 2026-05-07 21:20 | -27.39744 | 153.12115 | 275 ft | 165 kts | 209° |
| 2026-05-07 21:20 | -27.40835 | 153.11512 | 643 ft | 178 kts | 207° |
| 2026-05-07 21:20 | -27.41967 | 153.10927 | 1034 ft | 182 kts | 204° |
| 2026-05-07 21:21 | -27.43148 | 153.10357 | 1409 ft | 186 kts | 202° |
| 2026-05-07 21:21 | -27.44329 | 153.09804 | 2052 ft | 179 kts | 204° |
| 2026-05-07 21:21 | -27.45406 | 153.09130 | 2718 ft | 178 kts | 210° |
| 2026-05-07 21:21 | -27.46507 | 153.08440 | 3169 ft | 186 kts | 200° |
| 2026-05-07 21:22 | -27.47761 | 153.08035 | 3638 ft | 187 kts | 188° |
| 2026-05-07 21:22 | -27.49050 | 153.08001 | 4213 ft | 186 kts | 173° |
| 2026-05-07 21:22 | -27.50312 | 153.08349 | 4754 ft | 190 kts | 160° |
| 2026-05-07 21:22 | -27.51498 | 153.09036 | 5260 ft | 194 kts | 148° |
| 2026-05-07 21:23 | -27.52554 | 153.10008 | 5769 ft | 198 kts | 140° |
| 2026-05-07 21:23 | -27.53540 | 153.11058 | 6297 ft | 199 kts | 139° |
| 2026-05-07 21:23 | -27.54526 | 153.12170 | 6767 ft | 204 kts | 137° |
| 2026-05-07 21:23 | -27.55512 | 153.13371 | 7203 ft | 208 kts | 135° |
| 2026-05-07 21:24 | -27.56476 | 153.14604 | 7621 ft | 211 kts | 135° |
| 2026-05-07 21:24 | -27.57449 | 153.15856 | 8058 ft | 213 kts | 135° |
| 2026-05-07 21:24 | -27.58437 | 153.17109 | 8504 ft | 215 kts | 136° |
| 2026-05-07 21:24 | -27.59452 | 153.18381 | 8967 ft | 221 kts | 136° |
| 2026-05-07 21:25 | -27.60518 | 153.19701 | 9191 ft | 235 kts | 136° |
| 2026-05-07 21:25 | -27.61621 | 153.21053 | 9188 ft | 239 kts | 136° |
| 2026-05-07 21:25 | -27.62791 | 153.22466 | 9192 ft | 252 kts | 137° |
| 2026-05-07 21:25 | -27.64001 | 153.23911 | 9195 ft | 255 kts | 137° |
| 2026-05-07 21:26 | -27.65236 | 153.25374 | 9196 ft | 257 kts | 138° |
| 2026-05-07 21:26 | -27.66547 | 153.26735 | 9193 ft | 256 kts | 145° |
| 2026-05-07 21:26 | -27.68015 | 153.27788 | 9192 ft | 252 kts | 158° |
| 2026-05-07 21:26 | -27.69657 | 153.28520 | 9193 ft | 250 kts | 164° |
| 2026-05-07 21:27 | -27.71296 | 153.29193 | 9192 ft | 251 kts | 162° |
| 2026-05-07 21:27 | -27.72893 | 153.29938 | 9192 ft | 252 kts | 160° |
| 2026-05-07 21:27 | -27.74502 | 153.30713 | 9192 ft | 252 kts | 161° |
| 2026-05-07 21:27 | -27.76120 | 153.31475 | 9192 ft | 251 kts | 161° |
| 2026-05-07 21:28 | -27.77735 | 153.32227 | 9193 ft | 251 kts | 161° |
| 2026-05-07 21:28 | -27.79350 | 153.32983 | 9193 ft | 251 kts | 161° |
| 2026-05-07 21:28 | -27.80967 | 153.33742 | 9194 ft | 251 kts | 161° |
| 2026-05-07 21:28 | -27.82581 | 153.34499 | 9192 ft | 251 kts | 161° |
| 2026-05-07 21:29 | -27.84198 | 153.35258 | 9194 ft | 251 kts | 161° |
| 2026-05-07 21:29 | -27.85813 | 153.36016 | 9193 ft | 251 kts | 161° |
| 2026-05-07 21:29 | -27.87429 | 153.36775 | 9193 ft | 251 kts | 161° |
| 2026-05-07 21:29 | -27.89043 | 153.37533 | 9190 ft | 251 kts | 161° |
| 2026-05-07 21:30 | -27.90661 | 153.38293 | 9193 ft | 252 kts | 161° |
| 2026-05-07 21:30 | -27.92201 | 153.39023 | 9179 ft | 222 kts | 161° |
| 2026-05-07 21:30 | -27.93588 | 153.39677 | 9174 ft | 211 kts | 162° |
| 2026-05-07 21:30 | -27.94932 | 153.40305 | 9175 ft | 208 kts | 162° |
| 2026-05-07 21:31 | -27.96264 | 153.40929 | 9067 ft | 211 kts | 162° |
| 2026-05-07 21:31 | -27.97644 | 153.41576 | 8765 ft | 216 kts | 161° |
| 2026-05-07 21:31 | -27.98562 | 153.42008 | 8569 ft | 216 kts | 161° |
| 2026-05-07 21:31 | -27.99949 | 153.42663 | 8275 ft | 216 kts | 161° |
| 2026-05-07 21:32 | -28.01793 | 153.43546 | 7889 ft | 215 kts | 159° |
| 2026-05-07 21:32 | -28.02620 | 153.44178 | 7692 ft | 219 kts | 145° |
| 2026-05-07 21:32 | -28.03762 | 153.45328 | 7409 ft | 219 kts | 141° |
| 2026-05-07 21:32 | -28.05242 | 153.46883 | 7030 ft | 218 kts | 141° |
| 2026-05-07 21:33 | -28.05990 | 153.47672 | 6840 ft | 217 kts | 142° |
| 2026-05-07 21:33 | -28.07082 | 153.48835 | 6555 ft | 216 kts | 141° |
| 2026-05-07 21:33 | -28.08180 | 153.49997 | 6256 ft | 215 kts | 141° |
| 2026-05-07 21:33 | -28.09278 | 153.51135 | 5951 ft | 213 kts | 142° |
| 2026-05-07 21:34 | -28.10351 | 153.52276 | 5653 ft | 211 kts | 141° |
| 2026-05-07 21:34 | -28.11422 | 153.53414 | 5357 ft | 210 kts | 141° |
| 2026-05-07 21:34 | -28.12492 | 153.54522 | 5064 ft | 207 kts | 142° |
| 2026-05-07 21:34 | -28.13540 | 153.55627 | 4759 ft | 204 kts | 141° |
| 2026-05-07 21:35 | -28.14564 | 153.56719 | 4444 ft | 202 kts | 140° |
| 2026-05-07 21:35 | -28.15511 | 153.57688 | 4214 ft | 200 kts | 141° |
| 2026-05-07 21:35 | -28.16527 | 153.58713 | 4180 ft | 191 kts | 142° |
| 2026-05-07 21:35 | -28.17545 | 153.59596 | 4176 ft | 184 kts | 154° |
| 2026-05-07 21:36 | -28.18715 | 153.60165 | 4176 ft | 184 kts | 161° |
| 2026-05-07 21:36 | -28.19916 | 153.60635 | 4176 ft | 176 kts | 168° |
| 2026-05-07 21:36 | -28.21104 | 153.60766 | 4074 ft | 172 kts | 183° |
| 2026-05-07 21:36 | -28.22254 | 153.60408 | 3855 ft | 173 kts | 206° |
| 2026-05-07 21:37 | -28.23116 | 153.59544 | 3693 ft | 165 kts | 230° |
| 2026-05-07 21:37 | -28.23562 | 153.58381 | 3390 ft | 159 kts | 252° |
| 2026-05-07 21:37 | -28.23581 | 153.57113 | 2911 ft | 157 kts | 272° |
| 2026-05-07 21:37 | -28.23213 | 153.55989 | 2551 ft | 151 kts | 294° |
| 2026-05-07 21:38 | -28.22533 | 153.55053 | 2202 ft | 159 kts | 310° |
| 2026-05-07 21:38 | -28.21725 | 153.54279 | 1793 ft | 146 kts | 318° |
| 2026-05-07 21:38 | -28.20898 | 153.53639 | 1493 ft | 143 kts | 320° |
| 2026-05-07 21:38 | -28.20095 | 153.53012 | 1123 ft | 137 kts | 321° |
| 2026-05-07 21:39 | -28.19289 | 153.52448 | 748 ft | 134 kts | 326° |
| 2026-05-07 21:39 | -28.18492 | 153.51930 | 436 ft | 129 kts | 327° |
| 2026-05-07 21:39 | -28.17755 | 153.51423 | 186 ft | 120 kts | 326° |
| 2026-05-07 21:39 | -28.17057 | 153.50964 | 32 ft | 114 kts | 328° |
| 2026-05-07 21:40 | -28.16450 | 153.50574 | 25 ft | 78 kts | 333° |
| 2026-05-07 21:40 | -28.16178 | 153.50412 | 26 ft | 17 kts | 334° |
| 2026-05-07 21:40 | -28.16107 | 153.50420 | 27 ft | 15 kts | 63° |
| 2026-05-07 21:40 | -28.16066 | 153.50504 | 28 ft | 14 kts | 62° |
| 2026-05-07 21:41 | -28.16098 | 153.50568 | 25 ft | 16 kts | 154° |
| 2026-05-07 21:41 | -28.16240 | 153.50658 | 25 ft | 24 kts | 149° |
| 2026-05-07 21:41 | -28.16268 | 153.50771 | 27 ft | 25 kts | 69° |
| 2026-05-07 21:41 | -28.16212 | 153.50943 | 29 ft | 14 kts | 71° |
| 2026-05-07 21:42 | -28.16124 | 153.50890 | 26 ft | 11 kts | 310° |
| 2026-05-07 21:42 | -28.16124 | 153.50863 | 27 ft | 0 kts | 229° |